KBP weather

Boryspil International Airport
Kiev, Kiev, Ukraine

Public forecast

Using degrees Celsius for public forecast. Weather courtesy of forecast.io.

METAR (pilot weather report)

Retrieved 2019/07/23 03:30 UTC (28 minutes ago):

UKBB 230330Z 27002MPS CAVOK 16/16 Q1014 R88/CLRD// NOSIG

TAF (pilot weather forecast)

Forecast is more than 12 hours old.

Retrieved 2019/07/22 00:24 UTC (1 day ago):

TAF UKBB 222302Z 2300/2324 27003G08MPS 9999 BKN020 TX25/2312Z TN15/2302Z TEMPO 2300/2306 1400 BR BKN006 BECMG 2306/2308 30005G11MPS TEMPO 2308/2318 VRB09G18MPS 1200 TSRA SQ SCT007 BKN020CB TEMPO 2318/2324 2100 -SHRA BR SCT005 SCT015CB